createdAt,value
2023-03-06T00:04:45.648Z,-5.23
2023-03-06T00:09:38.276Z,-5.27
2023-03-06T00:14:30.923Z,-5.33
2023-03-06T00:19:24.526Z,-5.40
2023-03-06T00:24:17.433Z,-5.45
2023-03-06T00:29:10.090Z,-5.51
2023-03-06T00:34:03.938Z,-5.59
2023-03-06T00:38:56.718Z,-5.61
2023-03-06T00:43:51.518Z,-5.60
2023-03-06T00:48:44.951Z,-5.63
2023-03-06T00:53:38.377Z,-5.70
2023-03-06T00:58:31.097Z,-5.77
2023-03-06T01:03:23.729Z,-5.85
2023-03-06T01:08:17.802Z,-5.89
2023-03-06T01:13:10.807Z,-5.99
2023-03-06T01:18:03.519Z,-6.06
2023-03-06T01:22:56.777Z,-6.09
2023-03-06T01:27:49.377Z,-6.16
2023-03-06T01:32:42.164Z,-6.21
2023-03-06T01:37:37.650Z,-6.22
2023-03-06T01:42:32.069Z,-6.20
2023-03-06T01:47:24.859Z,-6.21
2023-03-06T01:52:23.087Z,-6.21
2023-03-06T01:57:30.055Z,-6.25
2023-03-06T02:02:23.621Z,-6.29
2023-03-06T02:07:21.566Z,-6.34
2023-03-06T02:12:18.839Z,-6.39
2023-03-06T02:17:14.028Z,-6.44
2023-03-06T02:22:07.275Z,-6.50
2023-03-06T02:27:02.071Z,-6.57
2023-03-06T02:31:54.817Z,-6.64
2023-03-06T02:36:51.664Z,-6.73
2023-03-06T02:41:44.490Z,-6.80
2023-03-06T02:46:38.890Z,-6.85
2023-03-06T02:51:31.560Z,-6.90
2023-03-06T02:56:24.328Z,-6.95
2023-03-06T03:01:17.227Z,-6.99
2023-03-06T03:06:10.035Z,-7.02
2023-03-06T03:11:03.880Z,-7.03
2023-03-06T03:16:09.093Z,-7.07
2023-03-06T03:21:01.862Z,-7.12
2023-03-06T03:25:54.886Z,-7.20
2023-03-06T03:30:48.192Z,-7.25
2023-03-06T03:35:41.487Z,-7.28
2023-03-06T03:40:34.344Z,-7.31
2023-03-06T03:45:27.062Z,-7.36
2023-03-06T03:50:20.574Z,-7.42
2023-03-06T03:55:13.649Z,-7.46
2023-03-06T04:00:08.151Z,-7.51
2023-03-06T04:05:07.072Z,-7.55
2023-03-06T04:10:00.161Z,-7.58
2023-03-06T04:14:53.607Z,-7.63
2023-03-06T04:19:46.373Z,-7.65
2023-03-06T04:24:41.629Z,-7.69
2023-03-06T04:29:34.736Z,-7.72
2023-03-06T04:34:27.549Z,-7.75
2023-03-06T04:39:20.298Z,-7.78
2023-03-06T04:44:13.823Z,-7.82
2023-03-06T04:49:06.538Z,-7.87
2023-03-06T04:53:59.288Z,-7.89
2023-03-06T04:58:51.979Z,-7.89
2023-03-06T05:03:44.584Z,-7.88
2023-03-06T05:08:37.374Z,-7.86
2023-03-06T05:13:30.160Z,-7.83
2023-03-06T05:18:23.112Z,-7.78
2023-03-06T05:23:16.274Z,-7.72
2023-03-06T05:28:09.252Z,-7.69
2023-03-06T05:33:02.443Z,-7.63
2023-03-06T05:37:55.093Z,-7.57
2023-03-06T05:42:47.741Z,-7.54
2023-03-06T05:47:40.425Z,-7.50
2023-03-06T05:52:33.103Z,-7.42
2023-03-06T05:57:27.664Z,-7.35
2023-03-06T06:02:20.916Z,-7.30
2023-03-06T06:07:15.655Z,-7.21
2023-03-06T06:12:11.490Z,-7.13
2023-03-06T06:17:04.249Z,-7.04
2023-03-06T06:21:57.042Z,-6.93
2023-03-06T06:26:58.000Z,-6.81
2023-03-06T06:31:52.230Z,-6.71
2023-03-06T06:36:45.632Z,-6.59
2023-03-06T06:41:56.996Z,-6.42
2023-03-06T06:52:03.554Z,-6.08
2023-03-06T06:56:56.203Z,-5.80
2023-03-06T07:01:48.892Z,-4.73
2023-03-06T07:06:42.514Z,-4.21
2023-03-06T07:11:35.755Z,-3.63
2023-03-06T07:16:28.790Z,-3.47
2023-03-06T07:21:24.511Z,-3.59
2023-03-06T07:26:17.215Z,-3.65
2023-03-06T07:31:11.632Z,-3.59
2023-03-06T07:36:04.874Z,-3.34
2023-03-06T07:40:57.526Z,-3.06
2023-03-06T07:45:57.842Z,-2.70
2023-03-06T07:51:02.963Z,-2.08
2023-03-06T07:55:55.949Z,0.41
2023-03-06T08:00:48.867Z,1.66
2023-03-06T08:05:41.813Z,3.20
2023-03-06T08:10:34.569Z,5.62
2023-03-06T08:15:27.253Z,5.38
2023-03-06T08:20:19.976Z,4.97
2023-03-06T08:25:15.222Z,4.49
2023-03-06T08:30:09.649Z,4.79
2023-03-06T08:35:04.683Z,4.03
2023-03-06T08:39:57.440Z,3.48
2023-03-06T08:44:50.664Z,3.37
2023-03-06T08:49:43.332Z,3.21
2023-03-06T08:54:37.440Z,2.98
2023-03-06T08:59:30.212Z,3.08
2023-03-06T09:04:22.835Z,3.28
2023-03-06T09:09:15.822Z,3.47
2023-03-06T09:14:08.741Z,3.67
2023-03-06T09:19:01.756Z,3.82
2023-03-06T09:23:54.412Z,3.67
2023-03-06T09:28:47.844Z,3.39
2023-03-06T09:33:40.623Z,3.43
2023-03-06T09:38:33.480Z,3.58
2023-03-06T09:43:48.170Z,3.71
2023-03-06T09:49:10.548Z,3.57
2023-03-06T09:54:14.554Z,3.25
2023-03-06T09:59:20.427Z,3.30
2023-03-06T10:04:48.026Z,3.34
2023-03-06T10:09:47.499Z,3.33
2023-03-06T10:14:48.471Z,3.27
2023-03-06T10:19:43.300Z,3.11
2023-03-06T10:24:56.000Z,2.93
2023-03-06T10:30:07.581Z,2.89
2023-03-06T10:35:05.393Z,2.85
2023-03-06T10:40:10.275Z,2.88
2023-03-06T10:45:09.564Z,2.78
2023-03-06T10:50:05.642Z,2.66
2023-03-06T10:55:23.947Z,2.55
2023-03-06T11:00:37.023Z,2.34
2023-03-06T11:05:29.798Z,2.25
2023-03-06T11:10:24.004Z,2.08
2023-03-06T11:15:19.035Z,2.14
2023-03-06T11:20:20.799Z,2.17
2023-03-06T11:25:17.889Z,2.13
2023-03-06T11:30:20.158Z,1.93
2023-03-06T11:35:25.791Z,1.77
2023-03-06T11:40:33.114Z,1.77
2023-03-06T11:45:37.293Z,1.70
2023-03-06T11:50:39.004Z,1.73
2023-03-06T11:55:31.576Z,1.80
2023-03-06T12:00:40.084Z,1.89
2023-03-06T12:05:50.435Z,2.12
2023-03-06T12:10:53.601Z,2.23
2023-03-06T12:16:04.929Z,2.09
2023-03-06T12:21:39.453Z,1.95
2023-03-06T12:26:51.001Z,1.72
2023-03-06T12:32:06.425Z,1.45
2023-03-06T12:37:17.292Z,1.35
2023-03-06T12:42:35.556Z,1.24
2023-03-06T12:47:29.273Z,1.15
2023-03-06T12:52:32.527Z,1.09
2023-03-06T12:57:26.660Z,1.02
2023-03-06T13:02:44.008Z,0.94
2023-03-06T13:08:14.490Z,0.94
2023-03-06T13:13:32.621Z,0.93
2023-03-06T13:18:25.229Z,0.81
2023-03-06T13:23:30.125Z,0.75
2023-03-06T13:28:40.230Z,0.68
2023-03-06T13:33:33.216Z,0.63
2023-03-06T13:39:11.150Z,0.58
2023-03-06T13:44:28.253Z,0.50
2023-03-06T13:49:25.776Z,0.47
2023-03-06T13:54:37.158Z,0.43
2023-03-06T13:59:59.629Z,0.37
2023-03-06T14:05:00.911Z,0.35
2023-03-06T14:10:15.677Z,0.35
2023-03-06T14:15:32.815Z,0.35
2023-03-06T14:20:34.568Z,0.35
2023-03-06T14:25:32.916Z,0.41
2023-03-06T14:30:27.105Z,0.50
2023-03-06T14:35:26.719Z,0.54
2023-03-06T14:40:31.447Z,0.57
2023-03-06T14:45:25.171Z,0.60
2023-03-06T14:50:30.319Z,0.66
2023-03-06T14:55:25.654Z,0.70
2023-03-06T15:00:22.508Z,0.77
2023-03-06T15:05:28.420Z,0.82
2023-03-06T15:10:30.984Z,0.86
2023-03-06T15:15:30.256Z,0.87
2023-03-06T15:20:42.459Z,0.86
2023-03-06T15:25:36.056Z,0.85
2023-03-06T15:30:31.024Z,0.85
2023-03-06T15:35:30.280Z,0.85
2023-03-06T15:40:25.519Z,0.82
2023-03-06T15:45:21.899Z,0.75
2023-03-06T15:50:20.922Z,0.69
2023-03-06T15:55:15.019Z,0.68
2023-03-06T16:00:26.453Z,0.68
2023-03-06T16:05:20.924Z,0.66
2023-03-06T16:10:15.714Z,0.63
2023-03-06T16:15:20.099Z,0.61
2023-03-06T16:20:23.821Z,0.56
2023-03-06T16:25:18.444Z,0.52
2023-03-06T16:30:20.853Z,0.49
2023-03-06T16:35:14.877Z,0.45
2023-03-06T16:40:19.324Z,0.42
2023-03-06T16:45:12.548Z,0.40
2023-03-06T16:50:05.941Z,0.35
2023-03-06T16:54:58.557Z,0.33
2023-03-06T16:59:52.304Z,0.33
2023-03-06T17:04:45.315Z,0.33
2023-03-06T17:09:38.007Z,0.34
2023-03-06T17:14:30.976Z,0.34
2023-03-06T17:19:23.647Z,0.35
2023-03-06T17:24:16.830Z,0.34
2023-03-06T17:29:12.157Z,0.33
2023-03-06T17:34:50.096Z,0.34
2023-03-06T17:39:49.917Z,0.37
2023-03-06T17:44:43.000Z,0.35
2023-03-06T17:49:35.795Z,0.35
2023-03-06T17:54:30.247Z,0.35
2023-03-06T17:59:22.986Z,0.32
2023-03-06T18:04:16.974Z,0.31
2023-03-06T18:09:10.292Z,0.31
2023-03-06T18:14:05.376Z,0.31
2023-03-06T18:18:58.578Z,0.30
2023-03-06T18:23:51.901Z,0.26
2023-03-06T18:28:47.439Z,0.23
2023-03-06T18:33:40.095Z,0.22
2023-03-06T18:38:33.521Z,0.21
2023-03-06T18:43:26.256Z,0.18
2023-03-06T18:48:18.983Z,0.16
2023-03-06T18:53:11.774Z,0.16
2023-03-06T18:58:04.529Z,0.16
2023-03-06T19:02:57.233Z,0.16
2023-03-06T19:07:49.972Z,0.17
2023-03-06T19:12:42.780Z,0.17
2023-03-06T19:17:37.715Z,0.18
2023-03-06T19:22:31.610Z,0.19
2023-03-06T19:27:24.308Z,0.16
2023-03-06T19:32:17.188Z,0.15
2023-03-06T19:37:10.073Z,0.15
2023-03-06T19:42:04.714Z,0.16
2023-03-06T19:46:57.693Z,0.16
2023-03-06T19:51:50.450Z,0.16
2023-03-06T19:56:43.390Z,0.16
2023-03-06T20:01:36.232Z,0.17
2023-03-06T20:06:33.603Z,0.18
2023-03-06T20:11:29.904Z,0.18
2023-03-06T20:16:30.202Z,0.19
2023-03-06T20:21:23.383Z,0.20
2023-03-06T20:26:17.172Z,0.19
2023-03-06T20:31:19.571Z,0.18
2023-03-06T20:36:40.517Z,0.17
2023-03-06T20:41:33.966Z,0.17
2023-03-06T20:47:21.875Z,0.18
2023-03-06T20:53:14.029Z,0.18
2023-03-06T20:58:42.452Z,0.17
2023-03-06T21:03:35.893Z,0.16
2023-03-06T21:08:28.963Z,0.14
2023-03-06T21:18:55.216Z,0.12
2023-03-06T21:23:49.580Z,0.10
2023-03-06T21:28:42.816Z,0.10
2023-03-06T21:33:35.697Z,0.06
2023-03-06T21:38:29.238Z,0.04
2023-03-06T21:43:22.004Z,0.03
2023-03-06T21:48:16.274Z,0.02
2023-03-06T21:53:10.089Z,0.01
2023-03-06T21:58:02.828Z,-0.01
2023-03-06T22:02:55.610Z,-0.01
2023-03-06T22:07:48.535Z,-0.01
2023-03-06T22:12:42.063Z,-0.00
2023-03-06T22:17:34.820Z,0.02
2023-03-06T22:22:27.867Z,0.03
2023-03-06T22:27:20.605Z,0.03
2023-03-06T22:32:13.445Z,0.00
2023-03-06T22:37:06.189Z,-0.04
2023-03-06T22:41:59.186Z,-0.03
2023-03-06T22:46:52.215Z,-0.01
2023-03-06T22:51:44.888Z,-0.01
2023-03-06T22:56:37.850Z,0.00
2023-03-06T23:01:33.818Z,0.00
2023-03-06T23:06:31.942Z,0.01
2023-03-06T23:11:25.679Z,0.00
2023-03-06T23:16:38.521Z,0.01
2023-03-06T23:21:49.963Z,0.00
2023-03-06T23:27:02.585Z,-0.01
2023-03-06T23:31:55.261Z,-0.01
2023-03-06T23:36:50.611Z,-0.01
2023-03-06T23:41:44.558Z,-0.01
2023-03-06T23:46:37.808Z,-0.07
2023-03-06T23:51:30.538Z,-0.18
2023-03-06T23:56:24.238Z,-0.32
